createdAt,value
2018-12-07T00:02:30.274Z,1.90
2018-12-07T00:05:33.880Z,2.00
2018-12-07T00:08:37.547Z,2.20
2018-12-07T00:11:41.123Z,2.30
2018-12-07T00:14:44.598Z,2.03
2018-12-07T00:17:48.093Z,1.90
2018-12-07T00:20:51.684Z,1.77
2018-12-07T00:23:55.230Z,2.10
2018-12-07T00:26:58.805Z,1.97
2018-12-07T00:30:02.892Z,2.07
2018-12-07T00:33:06.617Z,2.23
2018-12-07T00:36:10.543Z,2.03
2018-12-07T00:39:15.261Z,2.07
2018-12-07T00:42:18.925Z,1.90
2018-12-07T00:45:22.404Z,1.83
2018-12-07T00:48:25.900Z,1.70
2018-12-07T00:51:29.560Z,1.73
2018-12-07T00:54:33.187Z,2.17
2018-12-07T00:57:36.654Z,1.70
2018-12-07T01:00:40.061Z,1.70
2018-12-07T01:03:43.563Z,1.87
2018-12-07T01:06:47.172Z,2.37
2018-12-07T01:09:50.858Z,2.10
2018-12-07T01:12:54.800Z,2.30
2018-12-07T01:15:58.487Z,2.57
2018-12-07T01:19:02.237Z,3.03
2018-12-07T01:22:05.801Z,2.60
2018-12-07T01:25:09.273Z,2.80
2018-12-07T01:28:12.783Z,2.97
2018-12-07T01:31:16.567Z,2.73
2018-12-07T01:34:20.116Z,2.60
2018-12-07T01:37:23.773Z,2.90
2018-12-07T01:40:28.567Z,2.40
2018-12-07T01:43:32.180Z,2.30
2018-12-07T01:46:35.821Z,2.30
2018-12-07T01:49:39.473Z,2.10
2018-12-07T01:52:43.135Z,2.00
2018-12-07T01:55:46.763Z,1.80
2018-12-07T01:58:50.434Z,2.00
2018-12-07T02:01:54.102Z,2.17
2018-12-07T02:04:57.570Z,1.90
2018-12-07T02:08:01.173Z,1.93
2018-12-07T02:11:04.703Z,1.80
2018-12-07T02:14:08.281Z,1.90
2018-12-07T02:17:11.771Z,1.90
2018-12-07T02:20:15.463Z,1.93
2018-12-07T02:23:19.089Z,2.20
2018-12-07T02:26:22.775Z,2.00
2018-12-07T02:29:26.310Z,2.00
2018-12-07T02:32:29.818Z,2.00
2018-12-07T02:35:33.376Z,2.00
2018-12-07T02:38:37.275Z,2.23
2018-12-07T02:41:40.891Z,1.90
2018-12-07T02:44:44.551Z,1.90
2018-12-07T02:47:48.445Z,2.20
2018-12-07T02:50:52.310Z,2.00
2018-12-07T02:53:55.930Z,1.60
2018-12-07T02:56:59.599Z,1.60
2018-12-07T03:00:03.421Z,1.70
2018-12-07T03:03:07.014Z,1.60
2018-12-07T03:06:10.634Z,1.53
2018-12-07T03:09:14.055Z,1.80
2018-12-07T03:12:17.588Z,1.80
2018-12-07T03:15:21.187Z,1.73
2018-12-07T03:18:30.245Z,1.70
2018-12-07T03:21:33.837Z,1.50
2018-12-07T03:24:37.408Z,1.97
2018-12-07T03:27:41.016Z,1.60
2018-12-07T03:30:44.593Z,1.73
2018-12-07T03:33:48.124Z,1.67
2018-12-07T03:36:51.736Z,1.70
2018-12-07T03:39:55.398Z,1.97
2018-12-07T03:42:58.946Z,1.73
2018-12-07T03:46:02.715Z,1.50
2018-12-07T03:49:06.148Z,1.60
2018-12-07T03:52:09.869Z,1.70
2018-12-07T03:55:13.522Z,1.40
2018-12-07T03:58:17.273Z,1.43
2018-12-07T04:01:20.833Z,1.40
2018-12-07T04:04:24.575Z,1.03
2018-12-07T04:07:28.099Z,1.20
2018-12-07T04:10:31.662Z,0.80
2018-12-07T04:13:35.326Z,0.90
2018-12-07T04:16:38.858Z,0.90
2018-12-07T04:19:42.329Z,0.77
2018-12-07T04:22:45.873Z,0.80
2018-12-07T04:25:49.325Z,0.80
2018-12-07T04:28:52.845Z,0.80
2018-12-07T04:31:56.409Z,1.00
2018-12-07T04:34:59.812Z,0.90
2018-12-07T04:38:03.497Z,0.70
2018-12-07T04:41:06.989Z,0.87
2018-12-07T04:44:10.597Z,0.80
2018-12-07T04:47:14.050Z,1.00
2018-12-07T04:50:18.825Z,0.73
2018-12-07T04:53:23.418Z,0.83
2018-12-07T04:56:30.890Z,0.80
2018-12-07T04:59:34.633Z,0.80
2018-12-07T05:02:38.148Z,1.10
2018-12-07T05:05:41.758Z,0.70
2018-12-07T05:08:45.355Z,0.73
2018-12-07T05:11:48.985Z,0.90
2018-12-07T05:14:52.547Z,0.80
2018-12-07T05:17:56.217Z,0.73
2018-12-07T05:20:59.629Z,1.00
2018-12-07T05:24:03.327Z,1.20
2018-12-07T05:27:06.891Z,0.80
2018-12-07T05:30:10.490Z,1.03
2018-12-07T05:33:14.308Z,0.90
2018-12-07T05:36:17.829Z,1.10
2018-12-07T05:39:21.380Z,1.10
2018-12-07T05:42:24.918Z,1.07
2018-12-07T05:45:28.416Z,0.80
2018-12-07T05:48:32.086Z,0.93
2018-12-07T05:51:35.583Z,1.10
2018-12-07T05:54:39.090Z,1.20
2018-12-07T05:57:42.965Z,1.30
2018-12-07T06:00:46.647Z,1.37
2018-12-07T06:03:50.119Z,1.33
2018-12-07T06:06:53.541Z,1.10
2018-12-07T06:09:57.205Z,1.20
2018-12-07T06:13:00.795Z,1.07
2018-12-07T06:16:04.560Z,1.10
2018-12-07T06:19:08.174Z,1.00
2018-12-07T06:22:11.775Z,1.10
2018-12-07T06:25:15.398Z,0.90
2018-12-07T06:28:18.895Z,0.80
2018-12-07T06:31:26.535Z,0.70
2018-12-07T06:34:29.990Z,0.90
2018-12-07T06:37:33.488Z,0.80
2018-12-07T06:40:37.084Z,0.80
2018-12-07T06:43:41.130Z,0.80
2018-12-07T06:46:44.531Z,0.80
2018-12-07T06:49:48.001Z,0.80
2018-12-07T06:52:51.871Z,0.70
2018-12-07T06:55:55.309Z,0.70
2018-12-07T06:58:58.919Z,0.70
2018-12-07T07:02:02.630Z,0.70
2018-12-07T07:05:07.106Z,0.73
2018-12-07T07:08:10.626Z,1.10
2018-12-07T07:11:14.246Z,1.17
2018-12-07T07:14:17.730Z,1.00
2018-12-07T07:17:21.175Z,1.03
2018-12-07T07:20:24.989Z,0.70
2018-12-07T07:23:28.628Z,1.00
2018-12-07T07:26:32.087Z,0.80
2018-12-07T07:29:35.756Z,0.80
2018-12-07T07:32:39.390Z,0.93
2018-12-07T07:35:42.856Z,0.83
2018-12-07T07:38:46.399Z,1.00
2018-12-07T07:41:50.021Z,1.00
2018-12-07T07:44:53.662Z,1.17
2018-12-07T07:47:57.178Z,1.30
2018-12-07T07:51:01.075Z,1.20
2018-12-07T07:54:04.820Z,0.90
2018-12-07T07:57:08.271Z,1.00
2018-12-07T08:00:11.958Z,0.80
2018-12-07T08:03:15.568Z,1.20
2018-12-07T08:06:19.350Z,0.90
2018-12-07T08:09:23.025Z,0.80
2018-12-07T08:12:26.549Z,0.90
2018-12-07T08:15:31.062Z,1.10
2018-12-07T08:18:34.492Z,0.80
2018-12-07T08:21:38.090Z,1.07
2018-12-07T08:24:41.592Z,0.90
2018-12-07T08:27:45.152Z,0.80
2018-12-07T08:30:48.826Z,1.00
2018-12-07T08:33:52.463Z,1.20
2018-12-07T08:36:55.964Z,0.77
2018-12-07T08:40:00.638Z,1.00
2018-12-07T08:43:04.148Z,0.80
2018-12-07T08:46:07.732Z,0.80
2018-12-07T08:49:11.149Z,0.93
2018-12-07T08:52:14.607Z,0.97
2018-12-07T08:55:18.218Z,1.10
2018-12-07T08:58:21.838Z,0.80
2018-12-07T09:01:25.224Z,1.00
2018-12-07T09:04:28.856Z,0.87
2018-12-07T09:07:32.260Z,1.17
2018-12-07T09:10:35.728Z,1.00
2018-12-07T09:13:39.151Z,1.07
2018-12-07T09:16:42.551Z,1.00
2018-12-07T09:19:45.985Z,1.00
2018-12-07T09:22:49.490Z,1.10
2018-12-07T09:25:52.988Z,1.00
2018-12-07T09:28:56.578Z,0.90
2018-12-07T09:31:59.972Z,1.00
2018-12-07T09:35:03.604Z,0.90
2018-12-07T09:38:13.099Z,0.87
2018-12-07T09:41:10.599Z,1.10
2018-12-07T09:44:14.091Z,1.10
2018-12-07T09:47:17.604Z,0.97
2018-12-07T09:50:21.211Z,1.10
2018-12-07T09:53:24.848Z,1.10
2018-12-07T09:56:28.424Z,1.50
2018-12-07T09:59:31.971Z,1.10
2018-12-07T10:02:35.526Z,1.30
2018-12-07T10:05:39.059Z,1.00
2018-12-07T10:08:42.541Z,0.87
2018-12-07T10:11:46.030Z,1.00
2018-12-07T10:14:49.410Z,0.90
2018-12-07T10:17:52.833Z,0.80
2018-12-07T10:20:56.622Z,0.90
2018-12-07T10:24:00.150Z,0.90
2018-12-07T10:27:07.069Z,0.90
2018-12-07T10:30:10.710Z,1.30
2018-12-07T10:33:14.290Z,0.80
2018-12-07T10:36:17.981Z,0.70
2018-12-07T10:39:21.709Z,0.80
2018-12-07T10:42:25.331Z,1.00
2018-12-07T10:45:29.935Z,0.60
2018-12-07T10:48:33.749Z,0.70
2018-12-07T10:51:37.536Z,0.73
2018-12-07T10:54:41.114Z,0.80
2018-12-07T10:57:44.585Z,0.60
2018-12-07T11:00:53.402Z,0.80
2018-12-07T11:04:02.325Z,0.70
2018-12-07T11:07:11.413Z,0.80
2018-12-07T11:10:20.230Z,0.90
2018-12-07T11:13:28.969Z,1.30
2018-12-07T11:16:37.777Z,1.00
2018-12-07T11:19:46.610Z,1.00
2018-12-07T11:22:55.654Z,0.80
2018-12-07T11:26:05.571Z,0.80
2018-12-07T11:29:16.301Z,0.90
2018-12-07T11:32:45.098Z,1.00
2018-12-07T11:35:48.670Z,0.70
2018-12-07T11:38:52.072Z,0.60
2018-12-07T11:41:55.491Z,0.70
2018-12-07T11:44:58.930Z,0.50
2018-12-07T11:48:02.632Z,0.63
2018-12-07T11:51:06.310Z,0.50
2018-12-07T11:54:09.682Z,0.40
2018-12-07T11:57:13.151Z,0.50
2018-12-07T12:00:16.684Z,0.40
2018-12-07T12:03:20.161Z,0.50
2018-12-07T12:06:23.976Z,0.60
2018-12-07T12:09:27.530Z,0.53
2018-12-07T12:12:30.953Z,0.50
2018-12-07T12:15:34.558Z,0.67
2018-12-07T12:18:38.014Z,0.60
2018-12-07T12:21:41.579Z,0.60
2018-12-07T12:24:45.158Z,0.70
2018-12-07T12:27:48.603Z,0.60
2018-12-07T12:30:52.627Z,0.70
2018-12-07T12:33:56.104Z,0.87
2018-12-07T12:36:59.835Z,0.77
2018-12-07T12:40:04.619Z,0.90
2018-12-07T12:43:08.294Z,1.03
2018-12-07T12:46:11.727Z,1.00
2018-12-07T12:49:15.178Z,0.80
2018-12-07T12:52:18.832Z,0.80
2018-12-07T12:55:22.263Z,1.17
2018-12-07T12:58:25.844Z,0.93
2018-12-07T13:01:29.254Z,0.90
2018-12-07T13:04:32.770Z,0.83
2018-12-07T13:07:36.547Z,0.80
2018-12-07T13:10:40.089Z,1.00
2018-12-07T13:13:43.680Z,0.93
2018-12-07T13:16:47.153Z,0.90
2018-12-07T13:19:50.811Z,0.80
2018-12-07T13:22:54.477Z,0.93
2018-12-07T13:25:57.896Z,0.80
2018-12-07T13:29:01.627Z,0.70
2018-12-07T13:32:05.539Z,0.97
2018-12-07T13:35:09.181Z,0.90
2018-12-07T13:38:12.632Z,1.00
2018-12-07T13:41:16.595Z,0.90
2018-12-07T13:44:20.124Z,0.70
2018-12-07T13:47:23.897Z,0.63
2018-12-07T13:50:33.013Z,0.70
2018-12-07T13:53:38.079Z,0.70
2018-12-07T13:56:40.120Z,0.60
2018-12-07T13:59:43.931Z,0.67
2018-12-07T14:02:47.645Z,0.73
2018-12-07T14:05:51.533Z,0.80
2018-12-07T14:08:54.932Z,0.87
2018-12-07T14:11:58.425Z,0.60
2018-12-07T14:15:02.086Z,1.00
2018-12-07T14:18:05.938Z,0.73
2018-12-07T14:21:09.363Z,0.60
2018-12-07T14:24:12.980Z,0.63
2018-12-07T14:27:16.614Z,0.60
2018-12-07T14:30:20.226Z,0.50
2018-12-07T14:33:23.839Z,0.40
2018-12-07T14:36:27.296Z,0.60
2018-12-07T14:39:30.997Z,0.60
2018-12-07T14:42:34.529Z,0.60
2018-12-07T14:45:38.081Z,0.50
2018-12-07T14:48:41.587Z,0.50
2018-12-07T14:51:45.196Z,0.60
2018-12-07T14:54:48.705Z,0.70
2018-12-07T14:57:52.315Z,0.73
2018-12-07T15:00:55.920Z,0.60
2018-12-07T15:03:59.804Z,0.50
2018-12-07T15:07:04.371Z,0.63
2018-12-07T15:10:09.115Z,0.50
2018-12-07T15:13:12.594Z,0.60
2018-12-07T15:16:16.007Z,0.60
2018-12-07T15:19:19.663Z,0.50
2018-12-07T15:22:23.341Z,0.50
2018-12-07T15:25:26.783Z,0.63
2018-12-07T15:28:30.486Z,0.67
2018-12-07T15:31:34.023Z,0.63
2018-12-07T15:34:37.640Z,0.70
2018-12-07T15:37:41.287Z,0.50
2018-12-07T15:40:44.900Z,0.50
2018-12-07T15:43:48.630Z,0.70
2018-12-07T15:46:51.911Z,0.60
2018-12-07T15:49:55.555Z,0.50
2018-12-07T15:52:59.297Z,0.60
2018-12-07T15:56:03.136Z,0.73
2018-12-07T15:59:06.859Z,0.60
2018-12-07T16:02:10.239Z,0.70
2018-12-07T16:05:13.851Z,0.50
2018-12-07T16:08:24.754Z,0.90
2018-12-07T16:11:21.251Z,0.70
2018-12-07T16:14:24.766Z,0.80
2018-12-07T16:17:28.379Z,0.80
2018-12-07T16:20:32.271Z,0.70
2018-12-07T16:23:35.888Z,0.60
2018-12-07T16:26:39.455Z,0.70
2018-12-07T16:29:42.957Z,1.07
2018-12-07T16:32:46.647Z,0.70
2018-12-07T16:35:50.129Z,0.70
2018-12-07T16:38:54.772Z,1.30
2018-12-07T16:41:58.265Z,1.40
2018-12-07T16:45:01.872Z,0.70
2018-12-07T16:48:05.475Z,0.70
2018-12-07T16:51:08.892Z,0.70
2018-12-07T16:54:12.677Z,0.80
2018-12-07T16:57:16.442Z,0.90
2018-12-07T17:00:20.292Z,1.00
2018-12-07T17:03:24.054Z,1.07
2018-12-07T17:06:27.881Z,0.90
2018-12-07T17:09:31.324Z,0.90
2018-12-07T17:12:34.862Z,1.10
2018-12-07T17:15:40.341Z,1.40
2018-12-07T17:18:42.457Z,0.90
2018-12-07T17:21:46.283Z,0.90
2018-12-07T17:24:50.130Z,0.90
2018-12-07T17:27:53.908Z,0.80
2018-12-07T17:30:57.608Z,1.03
2018-12-07T17:34:01.184Z,1.00
2018-12-07T17:37:07.260Z,1.00
2018-12-07T17:40:11.620Z,0.97
2018-12-07T17:43:16.224Z,0.80
2018-12-07T17:46:20.085Z,0.90
2018-12-07T17:49:23.920Z,0.93
2018-12-07T17:52:27.829Z,1.00
2018-12-07T17:55:31.658Z,0.93
2018-12-07T17:58:35.174Z,1.00
2018-12-07T18:01:38.843Z,1.10
2018-12-07T18:04:42.476Z,1.10
2018-12-07T18:07:47.124Z,1.20
2018-12-07T18:10:51.476Z,1.10
2018-12-07T18:13:55.081Z,1.20
2018-12-07T18:16:58.837Z,1.10
2018-12-07T18:20:02.212Z,0.90
2018-12-07T18:23:06.018Z,1.30
2018-12-07T18:26:09.700Z,1.30
2018-12-07T18:29:13.514Z,0.90
2018-12-07T18:32:17.146Z,1.30
2018-12-07T18:35:20.944Z,1.00
2018-12-07T18:38:24.685Z,1.10
2018-12-07T18:41:28.414Z,1.10
2018-12-07T18:44:32.744Z,1.20
2018-12-07T18:47:37.846Z,1.33
2018-12-07T18:50:41.299Z,1.10
2018-12-07T18:53:46.254Z,1.90
2018-12-07T18:56:50.070Z,1.30
2018-12-07T18:59:53.787Z,1.40
2018-12-07T19:02:57.499Z,1.57
2018-12-07T19:06:01.174Z,1.80
2018-12-07T19:09:07.194Z,1.33
2018-12-07T19:12:11.911Z,1.27
2018-12-07T19:15:15.655Z,1.50
2018-12-07T19:18:18.979Z,1.57
2018-12-07T19:21:22.575Z,1.30
2018-12-07T19:24:26.113Z,1.60
2018-12-07T19:27:29.877Z,1.80
2018-12-07T19:30:33.197Z,1.60
2018-12-07T19:33:36.804Z,1.50
2018-12-07T19:36:41.145Z,1.60
2018-12-07T19:39:44.712Z,1.20
2018-12-07T19:42:48.199Z,1.57
2018-12-07T19:45:51.872Z,1.10
2018-12-07T19:48:56.508Z,1.10
2018-12-07T19:52:01.187Z,1.10
2018-12-07T19:55:05.263Z,1.07
2018-12-07T19:58:09.007Z,0.80
2018-12-07T20:01:12.595Z,0.70
2018-12-07T20:04:16.401Z,0.80
2018-12-07T20:07:20.068Z,0.80
2018-12-07T20:10:23.936Z,0.70
2018-12-07T20:13:27.479Z,0.67
2018-12-07T20:16:31.123Z,0.70
2018-12-07T20:19:34.683Z,0.60
2018-12-07T20:22:38.521Z,0.70
2018-12-07T20:25:42.237Z,0.60
2018-12-07T20:28:46.176Z,1.00
2018-12-07T20:31:50.105Z,1.00
2018-12-07T20:34:53.709Z,1.00
2018-12-07T20:37:57.642Z,1.23
2018-12-07T20:41:01.404Z,1.23
2018-12-07T20:44:05.238Z,0.90
2018-12-07T20:47:09.007Z,1.00
2018-12-07T20:50:12.801Z,1.20
2018-12-07T20:53:16.535Z,0.70
2018-12-07T20:56:21.035Z,1.00
2018-12-07T20:59:24.655Z,0.90
2018-12-07T21:02:28.559Z,1.10
2018-12-07T21:05:57.216Z,0.80
2018-12-07T21:09:25.371Z,1.40
2018-12-07T21:13:38.703Z,0.90
2018-12-07T21:17:00.065Z,0.90
2018-12-07T21:20:24.298Z,1.13
2018-12-07T21:23:28.084Z,1.07
2018-12-07T21:26:33.019Z,1.20
2018-12-07T21:29:36.658Z,0.90
2018-12-07T21:32:40.046Z,1.10
2018-12-07T21:35:56.658Z,1.30
2018-12-07T21:39:00.355Z,1.50
2018-12-07T21:42:03.989Z,1.37
2018-12-07T21:45:07.626Z,1.47
2018-12-07T21:48:24.888Z,1.30
2018-12-07T21:52:32.665Z,1.23
2018-12-07T21:55:37.082Z,1.33
2018-12-07T21:58:41.110Z,1.70
2018-12-07T22:01:44.691Z,1.47
2018-12-07T22:04:49.023Z,1.40
2018-12-07T22:07:53.055Z,1.70
2018-12-07T22:10:56.429Z,1.20
2018-12-07T22:14:00.141Z,1.57
2018-12-07T22:17:04.757Z,1.60
2018-12-07T22:20:09.384Z,1.70
2018-12-07T22:23:13.321Z,1.53
2018-12-07T22:26:16.522Z,2.17
2018-12-07T22:29:20.833Z,1.30
2018-12-07T22:32:24.487Z,1.30
2018-12-07T22:35:28.057Z,1.37
2018-12-07T22:38:31.827Z,1.47
2018-12-07T22:41:35.479Z,1.43
2018-12-07T22:44:39.069Z,1.40
2018-12-07T22:47:42.632Z,1.67
2018-12-07T22:50:46.418Z,1.77
2018-12-07T22:53:50.359Z,1.70
2018-12-07T22:56:55.093Z,2.00
2018-12-07T22:59:58.794Z,1.50
2018-12-07T23:03:02.337Z,1.20
2018-12-07T23:06:06.253Z,1.30
2018-12-07T23:09:09.864Z,1.40
2018-12-07T23:12:13.413Z,1.23
2018-12-07T23:15:17.071Z,1.33
2018-12-07T23:18:20.604Z,1.37
2018-12-07T23:21:24.134Z,1.43
2018-12-07T23:24:27.785Z,1.13
2018-12-07T23:27:31.272Z,1.20
2018-12-07T23:30:34.847Z,1.57
2018-12-07T23:33:38.421Z,1.33
2018-12-07T23:36:41.998Z,1.40
2018-12-07T23:39:45.605Z,1.30
2018-12-07T23:42:49.154Z,1.20
2018-12-07T23:45:52.637Z,1.37
2018-12-07T23:48:56.327Z,1.10
2018-12-07T23:52:00.014Z,1.20
2018-12-07T23:55:03.779Z,1.20
2018-12-07T23:58:07.563Z,1.30
